sensor_id;sensor_type;location;lat;lon;timestamp;temperature;humidity
14057;DHT22;7103;54.300;10.180;2023-06-22T00:01:20;16.20;1.00
14057;DHT22;7103;54.300;10.180;2023-06-22T00:03:49;16.20;1.00
14057;DHT22;7103;54.300;10.180;2023-06-22T00:06:16;16.20;1.00
14057;DHT22;7103;54.300;10.180;2023-06-22T00:08:43;16.20;1.00
14057;DHT22;7103;54.300;10.180;2023-06-22T00:11:10;16.20;1.00
14057;DHT22;7103;54.300;10.180;2023-06-22T00:13:38;16.20;1.00
14057;DHT22;7103;54.300;10.180;2023-06-22T00:16:05;16.20;1.00
14057;DHT22;7103;54.300;10.180;2023-06-22T00:18:32;16.10;1.00
14057;DHT22;7103;54.300;10.180;2023-06-22T00:20:59;16.10;1.00
14057;DHT22;7103;54.300;10.180;2023-06-22T00:23:26;16.00;1.00
14057;DHT22;7103;54.300;10.180;2023-06-22T00:25:53;16.00;1.00
14057;DHT22;7103;54.300;10.180;2023-06-22T00:28:20;16.00;1.00
14057;DHT22;7103;54.300;10.180;2023-06-22T00:30:49;16.00;1.00
14057;DHT22;7103;54.300;10.180;2023-06-22T00:33:16;15.90;1.00
14057;DHT22;7103;54.300;10.180;2023-06-22T00:35:43;15.90;1.00
14057;DHT22;7103;54.300;10.180;2023-06-22T00:38:11;15.80;1.00
14057;DHT22;7103;54.300;10.180;2023-06-22T00:40:38;15.60;1.00
14057;DHT22;7103;54.300;10.180;2023-06-22T00:43:05;15.60;1.00
14057;DHT22;7103;54.300;10.180;2023-06-22T00:45:33;15.60;1.00
14057;DHT22;7103;54.300;10.180;2023-06-22T00:48:00;15.60;1.00
14057;DHT22;7103;54.300;10.180;2023-06-22T00:50:30;15.50;1.00
14057;DHT22;7103;54.300;10.180;2023-06-22T00:53:05;15.60;1.00
14057;DHT22;7103;54.300;10.180;2023-06-22T00:55:41;15.50;1.00
14057;DHT22;7103;54.300;10.180;2023-06-22T00:58:11;15.40;1.00
14057;DHT22;7103;54.300;10.180;2023-06-22T01:00:40;15.40;1.00
14057;DHT22;7103;54.300;10.180;2023-06-22T01:03:08;15.50;1.00
14057;DHT22;7103;54.300;10.180;2023-06-22T01:05:37;15.40;1.00
14057;DHT22;7103;54.300;10.180;2023-06-22T01:08:31;15.40;1.00
14057;DHT22;7103;54.300;10.180;2023-06-22T01:11:10;15.40;1.00
14057;DHT22;7103;54.300;10.180;2023-06-22T01:13:56;15.40;1.00
14057;DHT22;7103;54.300;10.180;2023-06-22T01:16:27;15.40;1.00
14057;DHT22;7103;54.300;10.180;2023-06-22T01:18:56;15.40;1.00
14057;DHT22;7103;54.300;10.180;2023-06-22T01:21:27;15.50;1.00
14057;DHT22;7103;54.300;10.180;2023-06-22T01:29:35;15.30;1.00
14057;DHT22;7103;54.300;10.180;2023-06-22T01:32:04;15.30;1.00
14057;DHT22;7103;54.300;10.180;2023-06-22T01:34:35;15.30;1.00
14057;DHT22;7103;54.300;10.180;2023-06-22T01:37:04;15.30;1.00
14057;DHT22;7103;54.300;10.180;2023-06-22T01:39:32;15.20;1.00
14057;DHT22;7103;54.300;10.180;2023-06-22T01:41:59;15.20;1.00
14057;DHT22;7103;54.300;10.180;2023-06-22T01:44:26;15.20;1.00
14057;DHT22;7103;54.300;10.180;2023-06-22T01:46:54;15.10;1.00
14057;DHT22;7103;54.300;10.180;2023-06-22T01:49:21;15.10;1.00
14057;DHT22;7103;54.300;10.180;2023-06-22T01:51:49;15.10;1.00
14057;DHT22;7103;54.300;10.180;2023-06-22T01:54:16;15.10;1.00
14057;DHT22;7103;54.300;10.180;2023-06-22T01:56:43;15.00;1.00
14057;DHT22;7103;54.300;10.180;2023-06-22T01:59:31;15.00;1.00
14057;DHT22;7103;54.300;10.180;2023-06-22T02:02:06;15.00;1.00
14057;DHT22;7103;54.300;10.180;2023-06-22T02:04:38;14.90;1.00
14057;DHT22;7103;54.300;10.180;2023-06-22T02:07:12;14.80;1.00
14057;DHT22;7103;54.300;10.180;2023-06-22T02:09:43;14.80;1.00
14057;DHT22;7103;54.300;10.180;2023-06-22T02:12:12;14.80;1.00
14057;DHT22;7103;54.300;10.180;2023-06-22T02:14:40;14.80;1.00
14057;DHT22;7103;54.300;10.180;2023-06-22T02:17:09;14.70;1.00
14057;DHT22;7103;54.300;10.180;2023-06-22T02:19:36;14.70;1.00
14057;DHT22;7103;54.300;10.180;2023-06-22T02:22:04;14.80;1.00
14057;DHT22;7103;54.300;10.180;2023-06-22T02:24:31;14.80;1.00
14057;DHT22;7103;54.300;10.180;2023-06-22T02:27:01;14.80;1.00
14057;DHT22;7103;54.300;10.180;2023-06-22T02:29:28;14.70;1.00
14057;DHT22;7103;54.300;10.180;2023-06-22T02:31:55;14.70;1.00
14057;DHT22;7103;54.300;10.180;2023-06-22T02:34:22;14.80;1.00
14057;DHT22;7103;54.300;10.180;2023-06-22T02:36:49;14.70;1.00
14057;DHT22;7103;54.300;10.180;2023-06-22T02:39:24;14.70;1.00
14057;DHT22;7103;54.300;10.180;2023-06-22T02:41:54;14.70;1.00
14057;DHT22;7103;54.300;10.180;2023-06-22T02:44:21;14.70;1.00
14057;DHT22;7103;54.300;10.180;2023-06-22T02:46:49;14.70;1.00
14057;DHT22;7103;54.300;10.180;2023-06-22T02:49:16;14.70;1.00
14057;DHT22;7103;54.300;10.180;2023-06-22T02:51:46;14.70;1.00
14057;DHT22;7103;54.300;10.180;2023-06-22T02:54:13;14.60;1.00
14057;DHT22;7103;54.300;10.180;2023-06-22T02:56:40;14.60;1.00
14057;DHT22;7103;54.300;10.180;2023-06-22T02:59:07;14.60;1.00
14057;DHT22;7103;54.300;10.180;2023-06-22T03:01:34;14.60;1.00
14057;DHT22;7103;54.300;10.180;2023-06-22T03:04:08;14.70;1.00
14057;DHT22;7103;54.300;10.180;2023-06-22T03:06:35;14.60;1.00
14057;DHT22;7103;54.300;10.180;2023-06-22T03:09:04;14.60;1.00
14057;DHT22;7103;54.300;10.180;2023-06-22T03:11:33;14.60;1.00
14057;DHT22;7103;54.300;10.180;2023-06-22T03:14:00;14.50;1.00
14057;DHT22;7103;54.300;10.180;2023-06-22T03:16:28;14.50;1.00
14057;DHT22;7103;54.300;10.180;2023-06-22T03:18:55;14.50;1.00
14057;DHT22;7103;54.300;10.180;2023-06-22T03:21:23;14.60;1.00
14057;DHT22;7103;54.300;10.180;2023-06-22T03:23:50;14.60;1.00
14057;DHT22;7103;54.300;10.180;2023-06-22T03:26:18;14.70;1.00
14057;DHT22;7103;54.300;10.180;2023-06-22T03:28:45;14.70;1.00
14057;DHT22;7103;54.300;10.180;2023-06-22T03:31:12;14.80;1.00
14057;DHT22;7103;54.300;10.180;2023-06-22T03:33:39;14.90;1.00
14057;DHT22;7103;54.300;10.180;2023-06-22T03:36:06;14.90;1.00
14057;DHT22;7103;54.300;10.180;2023-06-22T03:38:33;14.90;1.00
14057;DHT22;7103;54.300;10.180;2023-06-22T03:41:00;14.90;1.00
14057;DHT22;7103;54.300;10.180;2023-06-22T03:43:27;14.90;1.00
14057;DHT22;7103;54.300;10.180;2023-06-22T03:45:54;15.00;1.00
14057;DHT22;7103;54.300;10.180;2023-06-22T03:48:21;15.00;1.00
14057;DHT22;7103;54.300;10.180;2023-06-22T03:50:48;15.00;1.00
14057;DHT22;7103;54.300;10.180;2023-06-22T03:53:15;15.00;1.00
14057;DHT22;7103;54.300;10.180;2023-06-22T03:55:49;15.10;1.00
14057;DHT22;7103;54.300;10.180;2023-06-22T03:58:20;15.10;1.00
14057;DHT22;7103;54.300;10.180;2023-06-22T04:00:52;15.20;1.00
14057;DHT22;7103;54.300;10.180;2023-06-22T04:03:19;15.30;1.00
14057;DHT22;7103;54.300;10.180;2023-06-22T04:05:47;15.30;1.00
14057;DHT22;7103;54.300;10.180;2023-06-22T04:08:14;15.40;1.00
14057;DHT22;7103;54.300;10.180;2023-06-22T04:10:41;15.50;1.00
14057;DHT22;7103;54.300;10.180;2023-06-22T04:13:09;15.60;1.00
14057;DHT22;7103;54.300;10.180;2023-06-22T04:15:36;15.60;1.00
14057;DHT22;7103;54.300;10.180;2023-06-22T04:18:03;15.60;1.00
14057;DHT22;7103;54.300;10.180;2023-06-22T04:20:31;15.60;1.00
14057;DHT22;7103;54.300;10.180;2023-06-22T04:22:59;15.80;1.00
14057;DHT22;7103;54.300;10.180;2023-06-22T04:25:26;15.90;1.00
14057;DHT22;7103;54.300;10.180;2023-06-22T04:27:53;16.10;1.00
14057;DHT22;7103;54.300;10.180;2023-06-22T04:30:20;16.50;1.00
14057;DHT22;7103;54.300;10.180;2023-06-22T04:32:47;17.20;1.00
14057;DHT22;7103;54.300;10.180;2023-06-22T04:35:25;17.70;1.00
14057;DHT22;7103;54.300;10.180;2023-06-22T04:37:53;18.00;1.00
14057;DHT22;7103;54.300;10.180;2023-06-22T04:40:23;18.00;1.00
14057;DHT22;7103;54.300;10.180;2023-06-22T04:42:50;17.80;1.00
14057;DHT22;7103;54.300;10.180;2023-06-22T04:45:20;17.60;1.00
14057;DHT22;7103;54.300;10.180;2023-06-22T04:47:48;17.50;1.00
14057;DHT22;7103;54.300;10.180;2023-06-22T04:50:15;17.40;1.00
14057;DHT22;7103;54.300;10.180;2023-06-22T04:52:42;17.30;1.00
14057;DHT22;7103;54.300;10.180;2023-06-22T04:55:09;17.30;1.00
14057;DHT22;7103;54.300;10.180;2023-06-22T04:57:36;17.30;1.00
14057;DHT22;7103;54.300;10.180;2023-06-22T05:00:06;17.50;1.00
14057;DHT22;7103;54.300;10.180;2023-06-22T05:02:40;17.60;1.00
14057;DHT22;7103;54.300;10.180;2023-06-22T05:05:07;17.60;1.00
14057;DHT22;7103;54.300;10.180;2023-06-22T05:07:36;17.70;1.00
14057;DHT22;7103;54.300;10.180;2023-06-22T05:10:03;17.80;1.00
14057;DHT22;7103;54.300;10.180;2023-06-22T05:12:30;17.90;1.00
14057;DHT22;7103;54.300;10.180;2023-06-22T05:14:57;17.90;1.00
14057;DHT22;7103;54.300;10.180;2023-06-22T05:17:25;18.00;1.00
14057;DHT22;7103;54.300;10.180;2023-06-22T05:19:52;18.20;1.00
14057;DHT22;7103;54.300;10.180;2023-06-22T05:22:19;18.20;1.00
14057;DHT22;7103;54.300;10.180;2023-06-22T05:24:46;18.30;1.00
14057;DHT22;7103;54.300;10.180;2023-06-22T05:27:30;18.40;1.00
14057;DHT22;7103;54.300;10.180;2023-06-22T05:30:15;18.50;1.00
14057;DHT22;7103;54.300;10.180;2023-06-22T05:33:00;18.60;1.00
14057;DHT22;7103;54.300;10.180;2023-06-22T05:35:39;18.70;1.00
14057;DHT22;7103;54.300;10.180;2023-06-22T05:38:06;19.30;1.00
14057;DHT22;7103;54.300;10.180;2023-06-22T05:40:33;19.80;1.00
14057;DHT22;7103;54.300;10.180;2023-06-22T05:43:00;20.20;1.00
14057;DHT22;7103;54.300;10.180;2023-06-22T05:45:28;20.60;1.00
14057;DHT22;7103;54.300;10.180;2023-06-22T05:47:55;21.10;1.00
14057;DHT22;7103;54.300;10.180;2023-06-22T05:50:22;21.50;1.00
14057;DHT22;7103;54.300;10.180;2023-06-22T05:52:49;22.00;1.00
14057;DHT22;7103;54.300;10.180;2023-06-22T05:55:16;22.40;1.00
14057;DHT22;7103;54.300;10.180;2023-06-22T05:57:45;22.60;99.90
14057;DHT22;7103;54.300;10.180;2023-06-22T06:00:12;23.00;99.90
14057;DHT22;7103;54.300;10.180;2023-06-22T06:02:40;23.30;99.90
14057;DHT22;7103;54.300;10.180;2023-06-22T06:05:14;23.70;99.90
14057;DHT22;7103;54.300;10.180;2023-06-22T06:07:44;24.00;99.90
14057;DHT22;7103;54.300;10.180;2023-06-22T06:10:12;24.40;99.90
14057;DHT22;7103;54.300;10.180;2023-06-22T06:12:39;24.50;99.90
14057;DHT22;7103;54.300;10.180;2023-06-22T06:15:06;24.80;99.90
14057;DHT22;7103;54.300;10.180;2023-06-22T06:17:54;24.60;99.90
14057;DHT22;7103;54.300;10.180;2023-06-22T06:20:24;25.10;99.90
14057;DHT22;7103;54.300;10.180;2023-06-22T06:22:51;25.20;99.90
14057;DHT22;7103;54.300;10.180;2023-06-22T06:25:19;25.10;99.90
14057;DHT22;7103;54.300;10.180;2023-06-22T06:27:50;25.20;99.90
14057;DHT22;7103;54.300;10.180;2023-06-22T06:30:18;25.50;99.90
14057;DHT22;7103;54.300;10.180;2023-06-22T06:32:46;26.10;99.90
14057;DHT22;7103;54.300;10.180;2023-06-22T06:35:14;26.00;99.90
14057;DHT22;7103;54.300;10.180;2023-06-22T06:37:47;25.80;99.90
14057;DHT22;7103;54.300;10.180;2023-06-22T06:40:15;25.80;99.90
14057;DHT22;7103;54.300;10.180;2023-06-22T06:42:47;26.10;99.90
14057;DHT22;7103;54.300;10.180;2023-06-22T06:45:18;26.40;99.90
14057;DHT22;7103;54.300;10.180;2023-06-22T06:47:46;26.40;99.90
14057;DHT22;7103;54.300;10.180;2023-06-22T06:50:13;26.20;99.90
14057;DHT22;7103;54.300;10.180;2023-06-22T06:52:41;26.20;99.90
14057;DHT22;7103;54.300;10.180;2023-06-22T06:55:09;26.60;99.90
14057;DHT22;7103;54.300;10.180;2023-06-22T06:57:39;26.90;99.90
14057;DHT22;7103;54.300;10.180;2023-06-22T07:00:08;27.40;99.90
14057;DHT22;7103;54.300;10.180;2023-06-22T07:02:42;27.70;99.90
14057;DHT22;7103;54.300;10.180;2023-06-22T07:05:11;27.80;99.90
14057;DHT22;7103;54.300;10.180;2023-06-22T07:07:38;27.90;99.90
14057;DHT22;7103;54.300;10.180;2023-06-22T07:10:06;28.00;99.90
14057;DHT22;7103;54.300;10.180;2023-06-22T07:12:33;28.00;99.90
14057;DHT22;7103;54.300;10.180;2023-06-22T07:15:05;28.00;99.90
14057;DHT22;7103;54.300;10.180;2023-06-22T07:17:35;28.30;99.90
14057;DHT22;7103;54.300;10.180;2023-06-22T07:20:03;28.50;99.90
14057;DHT22;7103;54.300;10.180;2023-06-22T07:22:38;28.70;99.90
14057;DHT22;7103;54.300;10.180;2023-06-22T07:25:06;28.80;99.90
14057;DHT22;7103;54.300;10.180;2023-06-22T07:27:39;29.20;99.90
14057;DHT22;7103;54.300;10.180;2023-06-22T07:30:11;29.60;99.90
14057;DHT22;7103;54.300;10.180;2023-06-22T07:32:38;29.50;99.90
14057;DHT22;7103;54.300;10.180;2023-06-22T07:35:05;29.70;99.90
14057;DHT22;7103;54.300;10.180;2023-06-22T07:37:33;30.00;99.90
14057;DHT22;7103;54.300;10.180;2023-06-22T07:40:02;29.90;99.90
14057;DHT22;7103;54.300;10.180;2023-06-22T07:42:32;29.60;99.90
14057;DHT22;7103;54.300;10.180;2023-06-22T07:45:00;29.10;99.90
14057;DHT22;7103;54.300;10.180;2023-06-22T07:47:28;29.30;99.90
14057;DHT22;7103;54.300;10.180;2023-06-22T07:49:58;29.70;99.90
14057;DHT22;7103;54.300;10.180;2023-06-22T07:52:28;29.90;99.90
14057;DHT22;7103;54.300;10.180;2023-06-22T07:54:55;29.70;99.90
14057;DHT22;7103;54.300;10.180;2023-06-22T07:57:22;30.20;99.90
14057;DHT22;7103;54.300;10.180;2023-06-22T07:59:49;30.30;99.90
14057;DHT22;7103;54.300;10.180;2023-06-22T08:02:16;30.40;99.90
14057;DHT22;7103;54.300;10.180;2023-06-22T08:04:43;30.40;99.90
14057;DHT22;7103;54.300;10.180;2023-06-22T08:07:11;30.50;99.90
14057;DHT22;7103;54.300;10.180;2023-06-22T08:09:38;30.10;99.90
14057;DHT22;7103;54.300;10.180;2023-06-22T08:12:05;30.40;99.90
14057;DHT22;7103;54.300;10.180;2023-06-22T08:14:32;30.80;99.90
14057;DHT22;7103;54.300;10.180;2023-06-22T08:17:03;30.90;99.90
14057;DHT22;7103;54.300;10.180;2023-06-22T08:19:30;31.30;99.90
14057;DHT22;7103;54.300;10.180;2023-06-22T08:21:56;31.50;99.90
14057;DHT22;7103;54.300;10.180;2023-06-22T08:24:24;31.70;99.90
14057;DHT22;7103;54.300;10.180;2023-06-22T08:26:51;31.80;99.90
14057;DHT22;7103;54.300;10.180;2023-06-22T08:29:18;31.80;99.90
14057;DHT22;7103;54.300;10.180;2023-06-22T08:31:46;31.60;99.90
14057;DHT22;7103;54.300;10.180;2023-06-22T08:34:13;31.10;99.90
14057;DHT22;7103;54.300;10.180;2023-06-22T08:36:43;31.10;99.90
14057;DHT22;7103;54.300;10.180;2023-06-22T08:39:19;30.20;99.90
14057;DHT22;7103;54.300;10.180;2023-06-22T08:41:47;29.60;99.90
14057;DHT22;7103;54.300;10.180;2023-06-22T08:44:17;29.30;99.90
14057;DHT22;7103;54.300;10.180;2023-06-22T08:46:45;29.50;99.90
14057;DHT22;7103;54.300;10.180;2023-06-22T08:49:12;29.90;99.90
14057;DHT22;7103;54.300;10.180;2023-06-22T08:51:39;30.70;99.90
14057;DHT22;7103;54.300;10.180;2023-06-22T08:54:06;31.40;99.90
14057;DHT22;7103;54.300;10.180;2023-06-22T08:56:33;31.50;99.90
14057;DHT22;7103;54.300;10.180;2023-06-22T08:59:00;31.10;99.90
14057;DHT22;7103;54.300;10.180;2023-06-22T09:01:27;30.50;99.90
14057;DHT22;7103;54.300;10.180;2023-06-22T09:03:54;30.10;99.90
14057;DHT22;7103;54.300;10.180;2023-06-22T09:06:23;29.60;99.90
14057;DHT22;7103;54.300;10.180;2023-06-22T09:08:50;29.50;99.90
14057;DHT22;7103;54.300;10.180;2023-06-22T09:11:17;29.60;99.90
14057;DHT22;7103;54.300;10.180;2023-06-22T09:13:44;30.00;99.90
14057;DHT22;7103;54.300;10.180;2023-06-22T09:16:11;30.00;99.90
14057;DHT22;7103;54.300;10.180;2023-06-22T09:18:38;30.30;99.90
14057;DHT22;7103;54.300;10.180;2023-06-22T09:21:05;30.40;99.90
14057;DHT22;7103;54.300;10.180;2023-06-22T09:23:32;30.50;99.90
14057;DHT22;7103;54.300;10.180;2023-06-22T09:25:59;30.70;99.90
14057;DHT22;7103;54.300;10.180;2023-06-22T09:28:26;30.80;99.90
14057;DHT22;7103;54.300;10.180;2023-06-22T09:30:53;30.90;99.90
14057;DHT22;7103;54.300;10.180;2023-06-22T09:33:25;30.80;99.90
14057;DHT22;7103;54.300;10.180;2023-06-22T09:35:52;31.10;99.90
14057;DHT22;7103;54.300;10.180;2023-06-22T09:38:19;31.20;99.90
14057;DHT22;7103;54.300;10.180;2023-06-22T09:40:46;32.10;99.90
14057;DHT22;7103;54.300;10.180;2023-06-22T09:43:13;32.10;99.90
14057;DHT22;7103;54.300;10.180;2023-06-22T09:45:40;30.90;99.90
14057;DHT22;7103;54.300;10.180;2023-06-22T09:48:08;31.40;99.90
14057;DHT22;7103;54.300;10.180;2023-06-22T09:50:39;31.70;99.90
14057;DHT22;7103;54.300;10.180;2023-06-22T09:53:06;32.50;99.90
14057;DHT22;7103;54.300;10.180;2023-06-22T09:55:33;32.50;99.90
14057;DHT22;7103;54.300;10.180;2023-06-22T09:58:00;31.90;99.90
14057;DHT22;7103;54.300;10.180;2023-06-22T10:00:27;32.00;99.90
14057;DHT22;7103;54.300;10.180;2023-06-22T10:02:55;31.50;99.90
14057;DHT22;7103;54.300;10.180;2023-06-22T10:05:26;31.50;99.90
14057;DHT22;7103;54.300;10.180;2023-06-22T10:07:54;32.10;99.90
14057;DHT22;7103;54.300;10.180;2023-06-22T10:10:21;31.80;99.90
14057;DHT22;7103;54.300;10.180;2023-06-22T10:12:55;31.80;99.90
14057;DHT22;7103;54.300;10.180;2023-06-22T10:15:22;31.90;99.90
14057;DHT22;7103;54.300;10.180;2023-06-22T10:17:49;32.00;99.90
14057;DHT22;7103;54.300;10.180;2023-06-22T10:20:17;31.10;99.90
14057;DHT22;7103;54.300;10.180;2023-06-22T10:22:45;30.90;99.90
14057;DHT22;7103;54.300;10.180;2023-06-22T10:25:13;31.40;99.90
14057;DHT22;7103;54.300;10.180;2023-06-22T10:27:40;30.70;99.90
14057;DHT22;7103;54.300;10.180;2023-06-22T10:30:11;29.70;99.90
14057;DHT22;7103;54.300;10.180;2023-06-22T10:32:42;29.70;99.90
14057;DHT22;7103;54.300;10.180;2023-06-22T10:35:10;30.40;99.90
14057;DHT22;7103;54.300;10.180;2023-06-22T10:37:44;30.50;99.90
14057;DHT22;7103;54.300;10.180;2023-06-22T10:40:13;31.00;99.90
14057;DHT22;7103;54.300;10.180;2023-06-22T10:42:40;31.70;99.90
14057;DHT22;7103;54.300;10.180;2023-06-22T10:45:08;31.80;99.90
14057;DHT22;7103;54.300;10.180;2023-06-22T10:47:35;32.50;99.90
14057;DHT22;7103;54.300;10.180;2023-06-22T10:50:03;32.60;99.90
14057;DHT22;7103;54.300;10.180;2023-06-22T10:52:30;32.70;99.90
14057;DHT22;7103;54.300;10.180;2023-06-22T10:54:57;32.80;99.90
14057;DHT22;7103;54.300;10.180;2023-06-22T10:57:24;33.30;99.90
14057;DHT22;7103;54.300;10.180;2023-06-22T10:59:51;32.90;99.90
14057;DHT22;7103;54.300;10.180;2023-06-22T11:02:18;33.20;99.90
14057;DHT22;7103;54.300;10.180;2023-06-22T11:04:45;32.90;99.90
14057;DHT22;7103;54.300;10.180;2023-06-22T11:07:16;32.70;99.90
14057;DHT22;7103;54.300;10.180;2023-06-22T11:09:43;33.00;99.90
14057;DHT22;7103;54.300;10.180;2023-06-22T11:12:10;33.20;99.90
14057;DHT22;7103;54.300;10.180;2023-06-22T11:14:39;33.10;99.90
14057;DHT22;7103;54.300;10.180;2023-06-22T11:17:06;32.80;99.90
14057;DHT22;7103;54.300;10.180;2023-06-22T11:19:32;33.30;99.90
14057;DHT22;7103;54.300;10.180;2023-06-22T11:21:59;33.50;99.90
14057;DHT22;7103;54.300;10.180;2023-06-22T11:24:26;33.00;99.90
14057;DHT22;7103;54.300;10.180;2023-06-22T11:26:53;32.90;99.90
14057;DHT22;7103;54.300;10.180;2023-06-22T11:29:20;33.20;99.90
14057;DHT22;7103;54.300;10.180;2023-06-22T11:32:03;32.20;99.90
14057;DHT22;7103;54.300;10.180;2023-06-22T11:34:30;31.20;99.90
14057;DHT22;7103;54.300;10.180;2023-06-22T11:36:56;30.80;99.90
14057;DHT22;7103;54.300;10.180;2023-06-22T11:39:23;30.70;99.90
14057;DHT22;7103;54.300;10.180;2023-06-22T11:42:07;31.00;99.90
14057;DHT22;7103;54.300;10.180;2023-06-22T11:44:34;31.40;99.90
14057;DHT22;7103;54.300;10.180;2023-06-22T11:47:01;31.40;99.90
14057;DHT22;7103;54.300;10.180;2023-06-22T11:49:31;31.60;99.90
14057;DHT22;7103;54.300;10.180;2023-06-22T11:51:58;32.10;99.90
14057;DHT22;7103;54.300;10.180;2023-06-22T11:54:25;31.70;99.90
14057;DHT22;7103;54.300;10.180;2023-06-22T11:56:52;31.50;99.90
14057;DHT22;7103;54.300;10.180;2023-06-22T11:59:19;30.90;99.90
14057;DHT22;7103;54.300;10.180;2023-06-22T12:01:46;30.60;99.90
14057;DHT22;7103;54.300;10.180;2023-06-22T12:04:13;30.70;99.90
14057;DHT22;7103;54.300;10.180;2023-06-22T12:06:40;30.60;99.90
14057;DHT22;7103;54.300;10.180;2023-06-22T12:09:10;30.30;99.90
14057;DHT22;7103;54.300;10.180;2023-06-22T12:11:37;30.40;99.90
14057;DHT22;7103;54.300;10.180;2023-06-22T12:14:04;30.50;99.90
14057;DHT22;7103;54.300;10.180;2023-06-22T12:16:31;30.50;99.90
14057;DHT22;7103;54.300;10.180;2023-06-22T12:18:58;31.00;99.90
14057;DHT22;7103;54.300;10.180;2023-06-22T12:21:25;31.20;99.90
14057;DHT22;7103;54.300;10.180;2023-06-22T12:23:51;30.80;99.90
14057;DHT22;7103;54.300;10.180;2023-06-22T12:26:18;30.00;99.90
14057;DHT22;7103;54.300;10.180;2023-06-22T12:28:45;29.90;99.90
14057;DHT22;7103;54.300;10.180;2023-06-22T12:31:14;29.50;99.90
14057;DHT22;7103;54.300;10.180;2023-06-22T12:33:41;29.00;99.90
14057;DHT22;7103;54.300;10.180;2023-06-22T12:36:08;29.10;99.90
14057;DHT22;7103;54.300;10.180;2023-06-22T12:38:35;29.70;99.90
14057;DHT22;7103;54.300;10.180;2023-06-22T12:41:02;30.10;99.90
14057;DHT22;7103;54.300;10.180;2023-06-22T12:43:29;30.30;99.90
14057;DHT22;7103;54.300;10.180;2023-06-22T12:45:56;30.50;99.90
14057;DHT22;7103;54.300;10.180;2023-06-22T12:48:25;30.30;99.90
14057;DHT22;7103;54.300;10.180;2023-06-22T12:50:52;30.50;99.90
14057;DHT22;7103;54.300;10.180;2023-06-22T12:53:21;30.10;99.90
14057;DHT22;7103;54.300;10.180;2023-06-22T12:55:50;29.90;99.90
14057;DHT22;7103;54.300;10.180;2023-06-22T12:58:17;29.80;99.90
14057;DHT22;7103;54.300;10.180;2023-06-22T13:00:44;29.40;99.90
14057;DHT22;7103;54.300;10.180;2023-06-22T13:03:11;29.40;99.90
14057;DHT22;7103;54.300;10.180;2023-06-22T13:05:38;29.60;99.90
14057;DHT22;7103;54.300;10.180;2023-06-22T13:08:05;29.60;99.90
14057;DHT22;7103;54.300;10.180;2023-06-22T13:10:32;29.90;99.90
14057;DHT22;7103;54.300;10.180;2023-06-22T13:12:59;29.70;99.90
14057;DHT22;7103;54.300;10.180;2023-06-22T13:15:29;29.70;99.90
14057;DHT22;7103;54.300;10.180;2023-06-22T13:17:57;29.60;99.90
14057;DHT22;7103;54.300;10.180;2023-06-22T13:20:24;29.40;99.90
14057;DHT22;7103;54.300;10.180;2023-06-22T13:22:51;29.30;99.90
14057;DHT22;7103;54.300;10.180;2023-06-22T13:25:18;29.30;99.90
14057;DHT22;7103;54.300;10.180;2023-06-22T13:27:47;29.20;99.90
14057;DHT22;7103;54.300;10.180;2023-06-22T13:30:14;29.30;99.90
14057;DHT22;7103;54.300;10.180;2023-06-22T13:32:58;29.70;99.90
14057;DHT22;7103;54.300;10.180;2023-06-22T13:35:43;29.50;99.90
14057;DHT22;7103;54.300;10.180;2023-06-22T13:38:27;29.60;99.90
14057;DHT22;7103;54.300;10.180;2023-06-22T13:41:11;29.70;99.90
14057;DHT22;7103;54.300;10.180;2023-06-22T13:43:56;29.70;99.90
14057;DHT22;7103;54.300;10.180;2023-06-22T13:46:40;29.50;99.90
14057;DHT22;7103;54.300;10.180;2023-06-22T13:49:25;29.50;99.90
14057;DHT22;7103;54.300;10.180;2023-06-22T13:52:09;29.40;99.90
14057;DHT22;7103;54.300;10.180;2023-06-22T13:54:37;29.30;99.90
14057;DHT22;7103;54.300;10.180;2023-06-22T13:57:04;29.20;99.90
14057;DHT22;7103;54.300;10.180;2023-06-22T13:59:31;29.20;99.90
14057;DHT22;7103;54.300;10.180;2023-06-22T14:01:58;29.50;99.90
14057;DHT22;7103;54.300;10.180;2023-06-22T14:04:25;29.60;99.90
14057;DHT22;7103;54.300;10.180;2023-06-22T14:06:53;29.10;99.90
14057;DHT22;7103;54.300;10.180;2023-06-22T14:09:23;29.30;99.90
14057;DHT22;7103;54.300;10.180;2023-06-22T14:11:50;29.50;99.90
14057;DHT22;7103;54.300;10.180;2023-06-22T14:14:17;29.00;99.90
14057;DHT22;7103;54.300;10.180;2023-06-22T14:16:43;28.50;99.90
14057;DHT22;7103;54.300;10.180;2023-06-22T14:19:10;28.30;99.90
14057;DHT22;7103;54.300;10.180;2023-06-22T14:21:37;28.20;99.90
14057;DHT22;7103;54.300;10.180;2023-06-22T14:24:04;28.40;99.90
14057;DHT22;7103;54.300;10.180;2023-06-22T14:26:31;28.50;99.90
14057;DHT22;7103;54.300;10.180;2023-06-22T14:28:58;28.20;99.90
14057;DHT22;7103;54.300;10.180;2023-06-22T14:31:25;28.20;99.90
14057;DHT22;7103;54.300;10.180;2023-06-22T14:33:52;28.40;99.90
14057;DHT22;7103;54.300;10.180;2023-06-22T14:36:19;28.00;99.90
14057;DHT22;7103;54.300;10.180;2023-06-22T14:38:46;27.90;99.90
14057;DHT22;7103;54.300;10.180;2023-06-22T14:41:13;27.70;99.90
14057;DHT22;7103;54.300;10.180;2023-06-22T14:43:49;27.50;99.90
14057;DHT22;7103;54.300;10.180;2023-06-22T14:46:18;27.50;99.90
14057;DHT22;7103;54.300;10.180;2023-06-22T14:48:45;27.60;99.90
14057;DHT22;7103;54.300;10.180;2023-06-22T14:51:13;27.90;99.90
14057;DHT22;7103;54.300;10.180;2023-06-22T14:53:44;28.00;99.90
14057;DHT22;7103;54.300;10.180;2023-06-22T14:56:12;28.00;99.90
14057;DHT22;7103;54.300;10.180;2023-06-22T14:58:41;27.90;99.90
14057;DHT22;7103;54.300;10.180;2023-06-22T15:01:13;27.70;99.90
14057;DHT22;7103;54.300;10.180;2023-06-22T15:03:40;27.50;99.90
14057;DHT22;7103;54.300;10.180;2023-06-22T15:06:08;27.10;99.90
14057;DHT22;7103;54.300;10.180;2023-06-22T15:08:39;26.90;99.90
14057;DHT22;7103;54.300;10.180;2023-06-22T15:11:06;27.00;99.90
14057;DHT22;7103;54.300;10.180;2023-06-22T15:13:34;27.10;99.90
14057;DHT22;7103;54.300;10.180;2023-06-22T15:16:02;27.10;99.90
14057;DHT22;7103;54.300;10.180;2023-06-22T15:18:33;27.20;99.90
14057;DHT22;7103;54.300;10.180;2023-06-22T15:21:04;27.30;99.90
14057;DHT22;7103;54.300;10.180;2023-06-22T15:23:32;27.50;99.90
14057;DHT22;7103;54.300;10.180;2023-06-22T15:26:00;27.70;99.90
14057;DHT22;7103;54.300;10.180;2023-06-22T15:28:29;27.90;99.90
14057;DHT22;7103;54.300;10.180;2023-06-22T15:30:56;27.90;99.90
14057;DHT22;7103;54.300;10.180;2023-06-22T15:33:24;27.80;99.90
14057;DHT22;7103;54.300;10.180;2023-06-22T15:35:51;27.40;99.90
14057;DHT22;7103;54.300;10.180;2023-06-22T15:38:19;27.00;99.90
14057;DHT22;7103;54.300;10.180;2023-06-22T15:40:46;27.00;99.90
14057;DHT22;7103;54.300;10.180;2023-06-22T15:43:13;27.00;99.90
14057;DHT22;7103;54.300;10.180;2023-06-22T15:45:40;27.00;99.90
14057;DHT22;7103;54.300;10.180;2023-06-22T15:48:07;26.70;99.90
14057;DHT22;7103;54.300;10.180;2023-06-22T15:50:34;26.50;99.90
14057;DHT22;7103;54.300;10.180;2023-06-22T15:53:01;26.10;99.90